Thunder radar more information blitzortung!


Radar de pluja more information rain snow radar


Visita la nostra xarxa de llocs de meteo:

Template documentation
and downloads

And another site



No particular awareness of the weather is required.    There are no Weather-warnings

Pagina Historial Weather Underground text

Diari Resum Octubre 10, 2017 Unitats:  Imperial    Mètric   Tant
« Previous Dia
SegĂźent Dia »
Diari Setmana Mensual Anual Personalitzada
  Maxima: Minima: Media:
Temperatura: 77.7 °F 56.7 °F 65.8 °F
Punt de rosada: 60.8 °F 53.8 °F 57.6 °F
Humitat: 91 % 49 % 76 %
Wind Speed: 10 mph 0 mph 2 mph
RĂ fegues de vent: 10 mph - -
Vent:- - SSE
Pression baro: 30.2 in 30.1 in -
Precipitacions: 0 in    
Historical Graphs
 
 
Dades de taula per Octubre 10, 2017
Temps Temperatura Punt de rosada Pression baro Vent Wind Speed RĂ fegues de vent Humitat Rainfall Rate (Hourly)
00:04 63.9 °F 57.2 °F 30.1 in Calm     79 % 0 in
00:09 63.9 °F 57.6 °F 30.1 in SSE 1.2 mph   80 % 0 in
00:14 63.7 °F 57.4 °F 30.1 in Calm     80 % 0 in
00:19 63.7 °F 57.4 °F 30.1 in ENE 1.2 mph   80 % 0 in
00:24 63.5 °F 57.2 °F 30.1 in Calm     80 % 0 in
00:29 63.1 °F 56.8 °F 30.1 in Calm     80 % 0 in
00:34 63.1 °F 56.8 °F 30.1 in ENE 1.4 mph 1.4 mph 80 % 0 in
00:39 62.8 °F 56.5 °F 30.1 in NE 1.2 mph   80 % 0 in
00:44 62.6 °F 56.7 °F 30.1 in Calm     81 % 0 in
00:49 62.6 °F 56.7 °F 30.1 in Calm     81 % 0 in
00:54 62.6 °F 56.7 °F 30.1 in Calm     81 % 0 in
00:59 62.4 °F 57.2 °F 30.1 in Calm     83 % 0 in
01:04 62.4 °F 57.2 °F 30.1 in Calm     83 % 0 in
01:09 62.4 °F 57.2 °F 30.1 in NE 1.2 mph 1.2 mph 83 % 0 in
01:14 62.4 °F 57.2 °F 30.1 in Calm     83 % 0 in
01:19 62.2 °F 57 °F 30.1 in Calm     83 % 0 in
01:24 62.1 °F 56.8 °F 30.1 in SW 0.9 mph   83 % 0 in
01:29 61.3 °F 56.1 °F 30.1 in SW 1.2 mph 1.2 mph 83 % 0 in
01:39 61.7 °F 56.8 °F 30.1 in SW 2.3 mph 2.3 mph 84 % 0 in
01:44 61.3 °F 56.5 °F 30.1 in WSW 1.2 mph   84 % 0 in
01:49 61.5 °F 56.7 °F 30.1 in Calm     84 % 0 in
01:54 61.5 °F 57 °F 30.1 in Calm     85 % 0 in
01:59 61.7 °F 57 °F 30.1 in Calm     85 % 0 in
02:04 61.9 °F 57.4 °F 30.1 in Calm     85 % 0 in
02:09 61.9 °F 57.4 °F 30.1 in WNW 1.6 mph 1.6 mph 85 % 0 in
02:14 61.9 °F 57.4 °F 30.1 in Calm     85 % 0 in
02:19 61.9 °F 57.4 °F 30.1 in NNW 2.3 mph 2.3 mph 85 % 0 in
02:24 61.9 °F 57.4 °F 30.1 in NNE 1.2 mph   85 % 0 in
02:29 61.7 °F 57 °F 30.1 in Calm     85 % 0 in
02:34 61.9 °F 57.6 °F 30.1 in Calm     86 % 0 in
02:39 61.9 °F 57.6 °F 30.1 in NNE 1.2 mph 1.2 mph 86 % 0 in
02:44 61.9 °F 57.6 °F 30.1 in Calm     86 % 0 in
02:49 61.7 °F 57.6 °F 30.1 in ENE 2 mph   86 % 0 in
02:54 61.5 °F 57.4 °F 30.1 in SSW 1.6 mph 1.6 mph 86 % 0 in
02:59 61.2 °F 56.7 °F 30.1 in Calm     85 % 0 in
03:04 61.2 °F 56.7 °F 30.1 in SSW 1.2 mph   85 % 0 in
03:09 61 °F 56.8 °F 30.1 in South 1.2 mph   86 % 0 in
03:19 60.8 °F 56.7 °F 30.1 in Calm     86 % 0 in
03:24 60.6 °F 56.5 °F 30.1 in Calm     86 % 0 in
03:25 60.6 °F 56.5 °F 30.1 in Calm     86 % 0 in
03:30 60.4 °F 56.1 °F 30.1 in Calm     86 % 0 in
03:35 60.3 °F 56.1 °F 30.1 in Calm     86 % 0 in
03:40 60.3 °F 56.1 °F 30.1 in SW 1.2 mph 1.2 mph 86 % 0 in
03:45 60.3 °F 56.1 °F 30.1 in Calm     86 % 0 in
03:46 60.3 °F 56.5 °F 30.1 in Calm     87 % 0 in
03:51 60.1 °F 56.1 °F 30.1 in Calm     87 % 0 in
03:56 60.1 °F 56.1 °F 30.1 in Calm     87 % 0 in
04:01 60.3 °F 56.1 °F 30.1 in WNW 1.2 mph   86 % 0 in
04:06 60.1 °F 56.1 °F 30.1 in Calm     87 % 0 in
04:11 60.1 °F 56.1 °F 30.1 in Calm     87 % 0 in
04:16 59.9 °F 55.9 °F 30.1 in Calm     87 % 0 in
04:22 59.5 °F 55.8 °F 30.1 in Calm     87 % 0 in
04:27 59.4 °F 55.6 °F 30.1 in Calm     87 % 0 in
04:32 59.5 °F 55.8 °F 30.1 in Calm     87 % 0 in
04:37 59.5 °F 55.9 °F 30.1 in Calm     88 % 0 in
04:42 59.5 °F 55.9 °F 30.1 in Calm     88 % 0 in
04:47 59.5 °F 55.9 °F 30.1 in Calm     88 % 0 in
04:52 59.5 °F 55.9 °F 30.1 in Calm     88 % 0 in
04:57 59.5 °F 55.9 °F 30.1 in Calm     88 % 0 in
05:03 59.5 °F 56.3 °F 30.1 in Calm     89 % 0 in
05:08 59.7 °F 56.5 °F 30.1 in WNW 1.2 mph   89 % 0 in
05:14 59.5 °F 56.3 °F 30.1 in Calm     89 % 0 in
05:20 59.2 °F 55.6 °F 30.1 in Calm     88 % 0 in
05:25 59.2 °F 55.6 °F 30.1 in Calm     88 % 0 in
05:30 59.4 °F 55.8 °F 30.1 in Calm     88 % 0 in
05:35 59.2 °F 55.6 °F 30.1 in Calm     88 % 0 in
05:36 59.2 °F 55.6 °F 30.1 in Calm     88 % 0 in
05:41 59 °F 55.8 °F 30.1 in Calm     89 % 0 in
05:46 59 °F 55.8 °F 30.1 in SW 1.4 mph   89 % 0 in
05:51 59.2 °F 55.9 °F 30.1 in Calm     89 % 0 in
05:56 59.2 °F 55.9 °F 30.1 in Calm     89 % 0 in
06:01 59 °F 55.8 °F 30.1 in Calm     89 % 0 in
06:06 58.8 °F 55.6 °F 30.1 in Calm     89 % 0 in
06:11 58.6 °F 55.4 °F 30.1 in Calm     89 % 0 in
06:16 58.6 °F 55.4 °F 30.1 in Calm     89 % 0 in
06:21 58.8 °F 55.6 °F 30.1 in Calm     89 % 0 in
06:26 58.6 °F 55.8 °F 30.1 in Calm     90 % 0 in
06:31 58.6 °F 55.8 °F 30.1 in Calm     90 % 0 in
06:36 58.6 °F 55.8 °F 30.1 in Calm     90 % 0 in
06:41 58.5 °F 55.6 °F 30.1 in Calm     90 % 0 in
06:46 58.5 °F 55.6 °F 30.1 in NW 1.2 mph   90 % 0 in
06:51 58.1 °F 55.2 °F 30.1 in Calm     90 % 0 in
06:56 57.9 °F 54.7 °F 30.1 in Calm     89 % 0 in
07:01 57.7 °F 54.5 °F 30.1 in Calm     89 % 0 in
07:06 57.6 °F 54.3 °F 30.1 in Calm     89 % 0 in
07:11 57.4 °F 54.1 °F 30.1 in Calm     89 % 0 in
07:16 57.2 °F 54 °F 30.1 in Calm     89 % 0 in
07:21 57.4 °F 54.5 °F 30.1 in Calm     90 % 0 in
07:26 57.2 °F 54.3 °F 30.1 in Calm     90 % 0 in
07:31 57.2 °F 54.3 °F 30.1 in Calm     90 % 0 in
07:36 57 °F 54.1 °F 30.1 in Calm     90 % 0 in
07:41 57 °F 54.1 °F 30.1 in Calm     90 % 0 in
07:46 56.8 °F 54 °F 30.1 in Calm     90 % 0 in
07:51 56.8 °F 54 °F 30.1 in Calm     90 % 0 in
07:56 56.7 °F 53.8 °F 30.1 in Calm     90 % 0 in
08:01 56.7 °F 53.8 °F 30.1 in Calm     90 % 0 in
08:11 56.8 °F 54 °F 30.1 in Calm     90 % 0 in
08:16 56.7 °F 53.8 °F 30.1 in Calm     90 % 0 in
08:21 56.7 °F 53.8 °F 30.1 in Calm     90 % 0 in
08:26 56.8 °F 54 °F 30.1 in Calm     90 % 0 in
08:31 56.8 °F 54.1 °F 30.1 in WNW 1.4 mph 1.4 mph 91 % 0 in
08:36 57 °F 54.1 °F 30.1 in SW 2.3 mph 2.3 mph 90 % 0 in
08:41 57 °F 54.1 °F 30.1 in SW 1.2 mph 1.2 mph 90 % 0 in
08:51 57.2 °F 54.3 °F 30.1 in SW 2.3 mph 2.3 mph 90 % 0 in
08:56 57.4 °F 54.9 °F 30.1 in West 2.3 mph 2.3 mph 91 % 0 in
09:02 57.7 °F 54.9 °F 30.2 in WSW 2.3 mph 2.3 mph 90 % 0 in
09:07 58.1 °F 55.6 °F 30.2 in WSW 1.2 mph 1.2 mph 91 % 0 in
09:12 58.3 °F 55.8 °F 30.2 in WSW 2.3 mph 2.3 mph 91 % 0 in
09:17 58.8 °F 56.1 °F 30.2 in WSW 2.6 mph 2.6 mph 91 % 0 in
09:22 59.4 °F 56.7 °F 30.2 in SW 2.6 mph 2.6 mph 91 % 0 in
09:27 59.7 °F 57 °F 30.2 in WSW 2.3 mph 2.3 mph 91 % 0 in
09:32 60.1 °F 57.4 °F 30.2 in SW 2.3 mph 2.3 mph 91 % 0 in
09:37 60.4 °F 57.7 °F 30.2 in SW 2.3 mph 2.3 mph 91 % 0 in
09:42 61 °F 58.3 °F 30.2 in SW 1.2 mph   91 % 0 in
09:47 61.2 °F 58.3 °F 30.2 in SSW 1.2 mph 1.2 mph 90 % 0 in
09:52 61.7 °F 58.6 °F 30.2 in SSE 2.3 mph 2.3 mph 90 % 0 in
09:57 62.2 °F 59.4 °F 30.2 in SSW 2.3 mph   90 % 0 in
09:58 62.2 °F 59.4 °F 30.2 in Calm     90 % 0 in
10:03 63.1 °F 59.7 °F 30.2 in WNW 1.2 mph 1.2 mph 89 % 0 in
10:08 63.1 °F 59.2 °F 30.2 in WSW 2.3 mph 2.3 mph 87 % 0 in
10:18 64.8 °F 60.1 °F 30.2 in SSW 1.2 mph   85 % 0 in
10:23 64.4 °F 59.5 °F 30.2 in SW 2.3 mph 2.3 mph 84 % 0 in
10:28 64.9 °F 59.7 °F 30.2 in NNE 1.2 mph   83 % 0 in
10:33 65.1 °F 59.7 °F 30.2 in SSW 2.3 mph 2.3 mph 83 % 0 in
10:38 66.2 °F 60.3 °F 30.2 in NE 2.4 mph 2.4 mph 81 % 0 in
10:43 66.6 °F 60.3 °F 30.2 in Calm     80 % 0 in
10:48 66.9 °F 59.7 °F 30.2 in NE 1.2 mph 1.2 mph 78 % 0 in
10:53 67.6 °F 59.7 °F 30.2 in East 2.6 mph 2.6 mph 76 % 0 in
10:58 67.5 °F 60.1 °F 30.2 in ENE 2.3 mph 2.3 mph 77 % 0 in
11:03 67.6 °F 59.7 °F 30.2 in SE 2.3 mph 2.3 mph 76 % 0 in
11:08 68.5 °F 60.3 °F 30.2 in NNE 4.3 mph 4.3 mph 75 % 0 in
11:13 67.8 °F 59.2 °F 30.2 in ESE 2.3 mph 2.4 mph 74 % 0 in
11:18 68.5 °F 59.9 °F 30.2 in NE 2.3 mph 2.3 mph 74 % 0 in
11:19 68.7 °F 60.1 °F 30.2 in ESE 2.9 mph 2.9 mph 74 % 0 in
11:24 69.1 °F 59.7 °F 30.2 in ESE 2.3 mph 2.6 mph 72 % 0 in
11:29 68.9 °F 59.9 °F 30.2 in ENE 3.5 mph 3.5 mph 73 % 0 in
11:34 69.4 °F 60.4 °F 30.2 in ENE 2.3 mph 2.3 mph 73 % 0 in
11:39 70 °F 60.1 °F 30.2 in South 3.5 mph 3.5 mph 71 % 0 in
11:44 70.7 °F 60.8 °F 30.2 in NNE 3.5 mph 3.5 mph 71 % 0 in
11:49 70.7 °F 60.1 °F 30.2 in ESE 2.9 mph 2.9 mph 69 % 0 in
11:54 70.9 °F 60.3 °F 30.2 in ESE 2.9 mph 2.9 mph 69 % 0 in
11:59 71.6 °F 59.5 °F 30.2 in ESE 3.5 mph 3.5 mph 66 % 0 in
12:04 71.4 °F 60.3 °F 30.2 in SSE 5.8 mph 5.8 mph 68 % 0 in
12:09 71.8 °F 59.7 °F 30.2 in NE 3.5 mph 3.5 mph 66 % 0 in
12:14 71.8 °F 60.3 °F 30.2 in East 3.5 mph 3.5 mph 67 % 0 in
12:19 71.4 °F 59.5 °F 30.2 in ENE 4.6 mph 4.6 mph 66 % 0 in
12:24 72 °F 59.2 °F 30.2 in SSE 4.6 mph 4.6 mph 64 % 0 in
12:29 72.1 °F 59.7 °F 30.2 in ESE 5.6 mph 5.6 mph 65 % 0 in
12:34 71.8 °F 59.4 °F 30.2 in NE 4.6 mph 4.6 mph 65 % 0 in
12:39 72 °F 59.5 °F 30.2 in East 4.6 mph 4.6 mph 65 % 0 in
12:44 72 °F 59.5 °F 30.2 in NE 3.5 mph 3.5 mph 65 % 0 in
12:49 72.3 °F 59.9 °F 30.2 in NNW 4.6 mph 4.6 mph 65 % 0 in
12:54 72.1 °F 58.8 °F 30.2 in ENE 3.5 mph 3.5 mph 63 % 0 in
13:04 73.8 °F 60.4 °F 30.2 in WSW 2.4 mph 2.4 mph 63 % 0 in
13:09 74.7 °F 60.8 °F 30.2 in SE 3.5 mph 3.5 mph 62 % 0 in
13:14 75.4 °F 59.5 °F 30.2 in SSE 3.5 mph 3.6 mph 58 % 0 in
13:19 75.2 °F 59.9 °F 30.2 in SSW 2.3 mph 2.3 mph 59 % 0 in
13:24 74.7 °F 59.4 °F 30.2 in South 3.8 mph 3.8 mph 59 % 0 in
13:29 75.2 °F 58.8 °F 30.2 in South 3.5 mph 3.5 mph 57 % 0 in
13:34 74.3 °F 58.1 °F 30.2 in SE 6.9 mph 6.9 mph 57 % 0 in
13:39 75.6 °F 59.4 °F 30.2 in ESE 2.3 mph 2.3 mph 57 % 0 in
13:44 76.6 °F 59.7 °F 30.2 in East 3.5 mph 3.5 mph 56 % 0 in
13:49 75.7 °F 58.8 °F 30.2 in ESE 4.6 mph 4.6 mph 56 % 0 in
13:54 75.4 °F 59.2 °F 30.2 in NE 4.6 mph 4.6 mph 57 % 0 in
13:59 74.8 °F 59.2 °F 30.1 in ESE 4.6 mph 4.6 mph 58 % 0 in
14:14 74.5 °F 58.3 °F 30.1 in ENE 2.6 mph 2.6 mph 57 % 0 in
14:19 73.8 °F 57.6 °F 30.1 in ENE 4.6 mph 4.6 mph 57 % 0 in
14:24 73.6 °F 57.4 °F 30.1 in ENE 4.9 mph 4.9 mph 57 % 0 in
14:29 73.4 °F 57.2 °F 30.1 in ESE 3.8 mph 3.8 mph 57 % 0 in
14:34 73.6 °F 57.4 °F 30.1 in ESE 3.5 mph 3.5 mph 57 % 0 in
14:39 73.9 °F 57.7 °F 30.1 in ESE 8.1 mph 8.1 mph 57 % 0 in
14:44 73.8 °F 57 °F 30.1 in WNW 3.5 mph 3.5 mph 56 % 0 in
14:49 73.6 °F 56.8 °F 30.1 in ESE 2.9 mph 2.9 mph 56 % 0 in
14:54 73.8 °F 57 °F 30.1 in South 4.6 mph 4.6 mph 56 % 0 in
14:59 74.3 °F 57.6 °F 30.1 in WSW 2.3 mph 2.3 mph 56 % 0 in
15:04 74.7 °F 57.4 °F 30.1 in SSE 1.4 mph 1.6 mph 55 % 0 in
15:09 74.7 °F 57.9 °F 30.1 in SW 2.3 mph 2.3 mph 56 % 0 in
15:14 75 °F 57.7 °F 30.1 in ESE 4.6 mph 4.6 mph 55 % 0 in
15:19 75.7 °F 57.4 °F 30.1 in ESE 5.8 mph 5.8 mph 53 % 0 in
15:24 76.5 °F 58.6 °F 30.1 in SW 4.9 mph 4.9 mph 54 % 0 in
15:29 76.8 °F 58.5 °F 30.1 in WSW 5.8 mph 5.8 mph 53 % 0 in
15:34 76.8 °F 57.9 °F 30.1 in SE 4.6 mph 4.6 mph 52 % 0 in
15:39 76.6 °F 57.2 °F 30.1 in ESE 4.6 mph 4.6 mph 51 % 0 in
15:44 77.7 °F 57 °F 30.1 in SSW 2.3 mph 2.3 mph 49 % 0 in
15:49 77.4 °F 57.4 °F 30.1 in West 5.9 mph 5.9 mph 50 % 0 in
15:54 77 °F 56.8 °F 30.1 in NE 4.7 mph 4.7 mph 50 % 0 in
15:59 76.6 °F 57.7 °F 30.1 in SSW 2.9 mph 2.9 mph 52 % 0 in
16:04 76.8 °F 57.4 °F 30.1 in SSE 3.5 mph 3.5 mph 51 % 0 in
16:09 77 °F 56.8 °F 30.1 in SSW 2 mph 2 mph 50 % 0 in
16:19 76.8 °F 57.4 °F 30.1 in SW 2.3 mph 2.3 mph 51 % 0 in
16:24 76.6 °F 57.2 °F 30.1 in SW 2.3 mph 2.3 mph 51 % 0 in
16:29 76.1 °F 56.7 °F 30.1 in ESE 4.6 mph 4.6 mph 51 % 0 in
16:34 74.8 °F 55.6 °F 30.1 in ESE 7.6 mph 7.6 mph 51 % 0 in
16:39 74.3 °F 55.6 °F 30.1 in ESE 5.8 mph 5.8 mph 52 % 0 in
16:44 73.9 °F 56.1 °F 30.1 in East 5.8 mph 5.8 mph 54 % 0 in
16:49 73.6 °F 56.8 °F 30.1 in East 10 mph 10 mph 56 % 0 in
16:54 73 °F 57.4 °F 30.1 in East 9.2 mph 9.2 mph 58 % 0 in
16:59 73 °F 57.9 °F 30.1 in ESE 8.1 mph 8.1 mph 59 % 0 in
17:04 72.7 °F 57.9 °F 30.1 in ESE 6.9 mph 6.9 mph 60 % 0 in
17:09 72.5 °F 57.7 °F 30.1 in ESE 5.8 mph 5.8 mph 60 % 0 in
17:14 72.5 °F 58.3 °F 30.1 in ESE 5.8 mph 5.8 mph 61 % 0 in
17:19 72.3 °F 58.1 °F 30.1 in ESE 6.9 mph 6.9 mph 61 % 0 in
17:24 72.3 °F 58.6 °F 30.1 in ENE 5.8 mph 5.8 mph 62 % 0 in
17:34 72.3 °F 59 °F 30.1 in ESE 5.8 mph 5.8 mph 63 % 0 in
17:39 72.3 °F 59 °F 30.1 in SE 6.9 mph 6.9 mph 63 % 0 in
17:44 72.1 °F 58.8 °F 30.1 in ENE 5.8 mph 5.8 mph 63 % 0 in
17:49 72.1 °F 58.8 °F 30.1 in ENE 5.9 mph 5.9 mph 63 % 0 in
17:54 71.8 °F 58.8 °F 30.1 in East 4.6 mph 4.6 mph 64 % 0 in
17:59 71.8 °F 58.8 °F 30.1 in ESE 3.6 mph 3.6 mph 64 % 0 in
18:04 71.8 °F 58.8 °F 30.1 in ENE 3.5 mph 3.6 mph 64 % 0 in
18:09 71.6 °F 58.8 °F 30.1 in ESE 9.2 mph 9.2 mph 64 % 0 in
18:14 71.4 °F 59.5 °F 30.1 in ENE 5.8 mph 5.8 mph 66 % 0 in
18:19 71.4 °F 59.5 °F 30.1 in East 3.5 mph 3.6 mph 66 % 0 in
18:24 71.4 °F 59.5 °F 30.1 in ESE 4.6 mph 4.6 mph 66 % 0 in
18:29 71.4 °F 59.5 °F 30.1 in SW 1.4 mph   66 % 0 in
18:39 71.8 °F 58.8 °F 30.1 in SSW 1.2 mph   64 % 0 in
18:44 71.8 °F 58.8 °F 30.1 in WSW 4.6 mph 4.6 mph 64 % 0 in
18:45 71.8 °F 58.8 °F 30.1 in WSW 4.6 mph 4.6 mph 64 % 0 in
18:50 71.8 °F 58.8 °F 30.1 in SW 3.5 mph 4.3 mph 64 % 0 in
18:55 71.6 °F 58.8 °F 30.1 in SW 3.8 mph 4.3 mph 64 % 0 in
19:00 71.2 °F 58.8 °F 30.1 in SW 5.9 mph 5.9 mph 65 % 0 in
19:05 71.1 °F 59.2 °F 30.1 in SW 4.7 mph 4.7 mph 66 % 0 in
19:15 70.7 °F 58.8 °F 30.1 in SW 4.9 mph 4.9 mph 66 % 0 in
19:20 70.3 °F 58.5 °F 30.1 in SW 6.4 mph 6.4 mph 66 % 0 in
19:25 70.2 °F 58.3 °F 30.1 in SSW 2.6 mph 2.6 mph 66 % 0 in
19:30 69.8 °F 58.3 °F 30.1 in SSW 5.8 mph 5.8 mph 67 % 0 in
19:35 69.6 °F 58.3 °F 30.1 in SW 2.3 mph 2.3 mph 67 % 0 in
19:40 69.4 °F 57.9 °F 30.1 in SW 3.5 mph 3.5 mph 67 % 0 in
19:45 69.1 °F 58.1 °F 30.1 in SSW 3.5 mph 3.5 mph 68 % 0 in
19:50 69.1 °F 58.1 °F 30.1 in SW 2.3 mph   68 % 0 in
19:55 68.7 °F 58.1 °F 30.1 in WSW 4.6 mph 4.6 mph 69 % 0 in
20:00 68.5 °F 57.9 °F 30.2 in SW 2.2 mph 2.2 mph 69 % 0 in
20:05 68.4 °F 57.7 °F 30.2 in SW 2.3 mph 2.3 mph 69 % 0 in
20:10 68.2 °F 57.9 °F 30.2 in SW 2.4 mph 2.4 mph 70 % 0 in
20:15 68 °F 57.7 °F 30.2 in SW 2.3 mph 2.3 mph 70 % 0 in
20:20 68 °F 57.7 °F 30.2 in West 2.3 mph 2.3 mph 70 % 0 in
20:25 67.8 °F 58.5 °F 30.2 in SW 2.3 mph 2.3 mph 72 % 0 in
20:30 62.6 °F 58.5 °F 30.2 in Calm     86 % 0 in
20:35 67.6 °F 58.3 °F 30.2 in WSW 1.2 mph   72 % 0 in
20:40 67.5 °F 58.5 °F 30.2 in SW 2.3 mph   73 % 0 in
20:45 67.3 °F 58.3 °F 30.2 in WSW 2.3 mph 2.3 mph 73 % 0 in
20:50 67.3 °F 58.3 °F 30.2 in West 2.3 mph 2.3 mph 73 % 0 in
20:55 67.1 °F 58.5 °F 30.2 in Calm     74 % 0 in
21:00 66.9 °F 58.5 °F 30.2 in SW 0.9 mph   74 % 0 in
21:05 66.9 °F 58.5 °F 30.2 in SW 1.2 mph   74 % 0 in
21:10 66.7 °F 58.6 °F 30.2 in Calm     75 % 0 in
21:15 66.6 °F 58.5 °F 30.2 in Calm     75 % 0 in
21:20 66.4 °F 58.3 °F 30.2 in Calm     75 % 0 in
21:25 66.4 °F 58.3 °F 30.2 in Calm     75 % 0 in
21:30 66.2 °F 58.5 °F 30.2 in Calm     76 % 0 in
21:35 66.2 °F 58.5 °F 30.2 in Calm     76 % 0 in
21:40 66 °F 58.3 °F 30.2 in Calm   1 mph 76 % 0 in
21:45 65.8 °F 58.5 °F 30.2 in Calm     77 % 0 in
21:50 65.7 °F 58.3 °F 30.2 in Calm     77 % 0 in
21:55 65.7 °F 58.3 °F 30.2 in Calm     77 % 0 in
22:00 65.5 °F 58.5 °F 30.2 in Calm     78 % 0 in
22:05 65.5 °F 58.5 °F 30.2 in Calm     78 % 0 in
22:10 65.5 °F 58.5 °F 30.2 in Calm     78 % 0 in
22:15 65.3 °F 58.3 °F 30.2 in Calm     78 % 0 in
22:20 65.3 °F 58.6 °F 30.2 in Calm     79 % 0 in
22:25 65.3 °F 58.6 °F 30.2 in Calm     79 % 0 in
22:30 65.1 °F 58.5 °F 30.2 in Calm     79 % 0 in
22:35 65.1 °F 58.5 °F 30.2 in Calm     79 % 0 in
22:40 64.9 °F 58.3 °F 30.2 in Calm     79 % 0 in
22:45 64.9 °F 58.3 °F 30.2 in Calm     79 % 0 in
22:50 64.8 °F 58.5 °F 30.2 in Calm     80 % 0 in
23:00 64.8 °F 58.5 °F 30.2 in Calm     80 % 0 in
23:05 64.8 °F 58.5 °F 30.2 in Calm     80 % 0 in
23:10 64.6 °F 58.3 °F 30.2 in Calm   2 mph 80 % 0 in
23:15 64.8 °F 58.5 °F 30.2 in Calm   2 mph 80 % 0 in
23:20 64.6 °F 58.6 °F 30.2 in Calm     81 % 0 in
23:25 64.6 °F 58.6 °F 30.2 in West 1.2 mph   81 % 0 in
23:30 64.6 °F 58.6 °F 30.2 in West 1.2 mph   81 % 0 in
23:35 64.6 °F 58.6 °F 30.2 in Calm     81 % 0 in
23:40 64.6 °F 59 °F 30.2 in Calm     82 % 0 in
23:45 64.4 °F 58.8 °F 30.2 in Calm     82 % 0 in
23:47 64.4 °F 58.8 °F 30.2 in Calm     82 % 0 in
23:50 59 °F 55.4 °F 30.2 in Calm   1 mph 88 % 0 in
23:52 64 °F 58.5 °F 30.2 in Calm     82 % 0 in
23:57 64 °F 58.5 °F 30.2 in Calm     82 % 0 in
Meteo Sesrovires
Elogis d' Weather Underground - 4 mb

Guio original per  Jim McMurry - jmcmurry@mwt.net Adaptat per a la plantilla per  Wim van der Kuil - Leuven-Template.eu

Trobareu la nostra informacio del temps tambe a:

Weather Underground

AWEKAS